sensor_id;sensor_type;location;lat;lon;timestamp;pressure;altitude;pressure_sealevel;temperature;humidity
84607;BME280;74838;47.984;7.842;2024-02-23T00:00:57;96840.50;;;8.33;87.70
84607;BME280;74838;47.984;7.842;2024-02-23T00:03:23;96827.88;;;8.21;86.33
84607;BME280;74838;47.984;7.842;2024-02-23T00:05:52;96831.00;;;8.27;86.76
84607;BME280;74838;47.984;7.842;2024-02-23T00:08:18;96841.88;;;8.26;86.72
84607;BME280;74838;47.984;7.842;2024-02-23T00:10:45;96846.06;;;8.32;87.54
84607;BME280;74838;47.984;7.842;2024-02-23T00:13:12;96851.34;;;8.32;86.16
84607;BME280;74838;47.984;7.842;2024-02-23T00:15:39;96849.00;;;8.26;85.58
84607;BME280;74838;47.984;7.842;2024-02-23T00:18:05;96855.13;;;8.21;85.17
84607;BME280;74838;47.984;7.842;2024-02-23T00:20:33;96874.72;;;8.20;86.17
84607;BME280;74838;47.984;7.842;2024-02-23T00:23:02;96876.03;;;8.18;85.31
84607;BME280;74838;47.984;7.842;2024-02-23T00:25:29;96860.50;;;8.11;85.45
84607;BME280;74838;47.984;7.842;2024-02-23T00:27:57;96877.41;;;8.15;86.13
84607;BME280;74838;47.984;7.842;2024-02-23T00:30:24;96886.38;;;8.14;85.83
84607;BME280;74838;47.984;7.842;2024-02-23T00:32:51;96891.69;;;8.14;85.80
84607;BME280;74838;47.984;7.842;2024-02-23T00:35:18;96865.56;;;8.03;87.23
84607;BME280;74838;47.984;7.842;2024-02-23T00:37:44;96876.88;;;8.13;85.94
84607;BME280;74838;47.984;7.842;2024-02-23T00:40:12;96877.94;;;8.12;83.80
84607;BME280;74838;47.984;7.842;2024-02-23T00:42:39;96876.41;;;8.01;82.25
84607;BME280;74838;47.984;7.842;2024-02-23T00:45:07;96891.47;;;8.01;82.68
84607;BME280;74838;47.984;7.842;2024-02-23T00:47:33;96887.75;;;8.02;83.86
84607;BME280;74838;47.984;7.842;2024-02-23T00:50:02;96890.19;;;7.93;82.11
84607;BME280;74838;47.984;7.842;2024-02-23T00:52:29;96894.94;;;7.96;83.00
84607;BME280;74838;47.984;7.842;2024-02-23T00:54:55;96899.16;;;7.92;84.51
84607;BME280;74838;47.984;7.842;2024-02-23T00:57:23;96901.78;;;7.97;82.49
84607;BME280;74838;47.984;7.842;2024-02-23T00:59:55;96900.53;;;7.90;82.98
84607;BME280;74838;47.984;7.842;2024-02-23T01:02:21;96894.75;;;7.83;82.93
84607;BME280;74838;47.984;7.842;2024-02-23T01:04:48;96898.69;;;7.85;82.54
84607;BME280;74838;47.984;7.842;2024-02-23T01:07:15;96906.38;;;7.82;82.32
84607;BME280;74838;47.984;7.842;2024-02-23T01:09:41;96896.94;;;7.61;82.92
84607;BME280;74838;47.984;7.842;2024-02-23T01:12:08;96921.47;;;7.77;82.19
84607;BME280;74838;47.984;7.842;2024-02-23T01:14:36;96932.06;;;7.72;82.47
84607;BME280;74838;47.984;7.842;2024-02-23T01:17:03;96937.06;;;7.73;81.97
84607;BME280;74838;47.984;7.842;2024-02-23T01:19:29;96933.66;;;7.73;81.60
84607;BME280;74838;47.984;7.842;2024-02-23T01:21:56;96899.66;;;7.42;81.52
84607;BME280;74838;47.984;7.842;2024-02-23T01:24:25;96934.19;;;7.65;81.97
84607;BME280;74838;47.984;7.842;2024-02-23T01:26:53;96924.66;;;7.69;81.10
84607;BME280;74838;47.984;7.842;2024-02-23T01:29:20;96923.66;;;7.60;81.37
84607;BME280;74838;47.984;7.842;2024-02-23T01:31:48;96910.44;;;7.60;81.03
84607;BME280;74838;47.984;7.842;2024-02-23T01:34:16;96925.50;;;7.59;80.14
84607;BME280;74838;47.984;7.842;2024-02-23T01:36:42;96916.00;;;7.48;80.28
84607;BME280;74838;47.984;7.842;2024-02-23T01:39:11;96893.59;;;7.41;80.32
84607;BME280;74838;47.984;7.842;2024-02-23T01:41:38;96911.81;;;7.43;79.73
84607;BME280;74838;47.984;7.842;2024-02-23T01:44:05;96917.88;;;7.48;80.19
84607;BME280;74838;47.984;7.842;2024-02-23T01:46:32;96903.63;;;7.44;80.36
84607;BME280;74838;47.984;7.842;2024-02-23T01:49:00;96914.19;;;7.44;79.92
84607;BME280;74838;47.984;7.842;2024-02-23T01:51:27;96908.09;;;7.43;79.74
84607;BME280;74838;47.984;7.842;2024-02-23T01:53:56;96895.69;;;7.44;79.47
84607;BME280;74838;47.984;7.842;2024-02-23T01:56:23;96892.00;;;7.35;79.41
84607;BME280;74838;47.984;7.842;2024-02-23T01:58:50;96879.38;;;7.27;79.60
84607;BME280;74838;47.984;7.842;2024-02-23T02:01:16;96895.47;;;7.31;78.47
84607;BME280;74838;47.984;7.842;2024-02-23T02:03:43;96888.06;;;7.33;79.50
84607;BME280;74838;47.984;7.842;2024-02-23T02:06:12;96885.44;;;7.28;78.61
84607;BME280;74838;47.984;7.842;2024-02-23T02:08:38;96885.16;;;7.34;79.73
84607;BME280;74838;47.984;7.842;2024-02-23T02:11:05;96887.78;;;7.39;80.10
84607;BME280;74838;47.984;7.842;2024-02-23T02:13:32;96886.19;;;7.38;80.44
84607;BME280;74838;47.984;7.842;2024-02-23T02:16:00;96874.09;;;7.27;79.66
84607;BME280;74838;47.984;7.842;2024-02-23T02:18:27;96861.72;;;7.13;79.91
84607;BME280;74838;47.984;7.842;2024-02-23T02:20:55;96853.03;;;6.98;80.76
84607;BME280;74838;47.984;7.842;2024-02-23T02:23:25;96878.56;;;7.32;81.60
84607;BME280;74838;47.984;7.842;2024-02-23T02:25:53;96839.28;;;7.05;81.20
84607;BME280;74838;47.984;7.842;2024-02-23T02:28:19;96880.69;;;7.30;80.53
84607;BME280;74838;47.984;7.842;2024-02-23T02:30:46;96873.81;;;7.29;80.80
84607;BME280;74838;47.984;7.842;2024-02-23T02:33:13;96875.41;;;7.25;81.46
84607;BME280;74838;47.984;7.842;2024-02-23T02:35:39;96866.22;;;7.12;80.69
84607;BME280;74838;47.984;7.842;2024-02-23T02:38:06;96849.31;;;7.13;81.29
84607;BME280;74838;47.984;7.842;2024-02-23T02:40:34;96882.53;;;7.29;81.54
84607;BME280;74838;47.984;7.842;2024-02-23T02:43:01;96882.03;;;7.27;82.04
84607;BME280;74838;47.984;7.842;2024-02-23T02:45:27;96868.28;;;7.25;79.29
84607;BME280;74838;47.984;7.842;2024-02-23T02:47:54;96875.38;;;7.35;80.54
84607;BME280;74838;47.984;7.842;2024-02-23T02:50:21;96870.09;;;7.35;79.83
84607;BME280;74838;47.984;7.842;2024-02-23T02:52:48;96861.63;;;7.38;79.51
84607;BME280;74838;47.984;7.842;2024-02-23T02:55:15;96866.66;;;7.39;79.64
84607;BME280;74838;47.984;7.842;2024-02-23T02:57:43;96859.25;;;7.36;77.64
84607;BME280;74838;47.984;7.842;2024-02-23T03:00:13;96865.06;;;7.38;77.82
84607;BME280;74838;47.984;7.842;2024-02-23T03:02:42;96859.50;;;7.40;78.81
84607;BME280;74838;47.984;7.842;2024-02-23T03:05:08;96870.31;;;7.43;78.65
84607;BME280;74838;47.984;7.842;2024-02-23T03:07:35;96864.53;;;7.41;77.95
84607;BME280;74838;47.984;7.842;2024-02-23T03:10:02;96863.44;;;7.47;77.40
84607;BME280;74838;47.984;7.842;2024-02-23T03:12:31;96850.31;;;7.27;78.16
84607;BME280;74838;47.984;7.842;2024-02-23T03:14:59;96851.38;;;7.26;78.38
84607;BME280;74838;47.984;7.842;2024-02-23T03:17:29;96863.00;;;7.30;77.68
84607;BME280;74838;47.984;7.842;2024-02-23T03:19:56;96869.84;;;7.31;79.01
84607;BME280;74838;47.984;7.842;2024-02-23T03:22:23;96884.13;;;7.30;77.60
84607;BME280;74838;47.984;7.842;2024-02-23T03:24:49;96873.00;;;7.33;77.37
84607;BME280;74838;47.984;7.842;2024-02-23T03:27:16;96875.63;;;7.38;77.70
84607;BME280;74838;47.984;7.842;2024-02-23T03:29:43;96864.56;;;7.26;77.77
84607;BME280;74838;47.984;7.842;2024-02-23T03:32:11;96857.16;;;7.33;78.24
84607;BME280;74838;47.984;7.842;2024-02-23T03:34:37;96857.66;;;7.40;79.85
84607;BME280;74838;47.984;7.842;2024-02-23T03:37:04;96856.88;;;7.40;77.99
84607;BME280;74838;47.984;7.842;2024-02-23T03:39:30;96861.91;;;7.36;77.79
84607;BME280;74838;47.984;7.842;2024-02-23T03:41:58;96854.50;;;7.38;77.21
84607;BME280;74838;47.984;7.842;2024-02-23T03:44:24;96858.47;;;7.41;78.00
84607;BME280;74838;47.984;7.842;2024-02-23T03:46:51;96851.34;;;7.36;78.64
84607;BME280;74838;47.984;7.842;2024-02-23T03:49:19;96846.59;;;7.33;78.94
84607;BME280;74838;47.984;7.842;2024-02-23T03:51:46;96849.75;;;7.35;78.90
84607;BME280;74838;47.984;7.842;2024-02-23T03:54:12;96838.41;;;7.35;78.86
84607;BME280;74838;47.984;7.842;2024-02-23T03:56:39;96843.97;;;7.28;77.43
84607;BME280;74838;47.984;7.842;2024-02-23T03:59:06;96831.31;;;7.30;77.33
84607;BME280;74838;47.984;7.842;2024-02-23T04:01:35;96836.63;;;7.20;78.57
84607;BME280;74838;47.984;7.842;2024-02-23T04:04:02;96843.47;;;7.21;78.47
84607;BME280;74838;47.984;7.842;2024-02-23T04:06:30;96838.75;;;7.13;78.31
84607;BME280;74838;47.984;7.842;2024-02-23T04:08:57;96832.66;;;7.18;77.96
84607;BME280;74838;47.984;7.842;2024-02-23T04:11:26;96827.91;;;7.15;78.94
84607;BME280;74838;47.984;7.842;2024-02-23T04:13:52;96831.34;;;7.15;80.29
84607;BME280;74838;47.984;7.842;2024-02-23T04:16:22;96823.94;;;7.12;80.24
84607;BME280;74838;47.984;7.842;2024-02-23T04:18:49;96819.97;;;7.10;78.35
84607;BME280;74838;47.984;7.842;2024-02-23T04:21:16;96819.78;;;6.97;75.63
84607;BME280;74838;47.984;7.842;2024-02-23T04:23:44;96814.78;;;6.90;74.99
84607;BME280;74838;47.984;7.842;2024-02-23T04:26:11;96811.38;;;6.85;75.25
84607;BME280;74838;47.984;7.842;2024-02-23T04:28:38;96815.84;;;6.89;76.81
84607;BME280;74838;47.984;7.842;2024-02-23T04:31:08;96815.84;;;6.79;75.08
84607;BME280;74838;47.984;7.842;2024-02-23T04:33:35;96804.00;;;6.77;76.03
84607;BME280;74838;47.984;7.842;2024-02-23T04:36:02;96810.31;;;6.81;75.03
84607;BME280;74838;47.984;7.842;2024-02-23T04:38:29;96815.06;;;6.84;77.25
84607;BME280;74838;47.984;7.842;2024-02-23T04:41:02;96818.50;;;6.74;74.86
84607;BME280;74838;47.984;7.842;2024-02-23T04:43:29;96819.06;;;6.66;75.30
84607;BME280;74838;47.984;7.842;2024-02-23T04:45:56;96818.00;;;6.62;76.78
84607;BME280;74838;47.984;7.842;2024-02-23T04:48:22;96821.44;;;6.63;78.43
84607;BME280;74838;47.984;7.842;2024-02-23T04:50:49;96818.00;;;6.58;76.24
84607;BME280;74838;47.984;7.842;2024-02-23T04:53:16;96821.19;;;6.55;74.49
84607;BME280;74838;47.984;7.842;2024-02-23T04:55:42;96814.03;;;6.65;76.14
84607;BME280;74838;47.984;7.842;2024-02-23T04:58:10;96822.47;;;6.72;79.81
84607;BME280;74838;47.984;7.842;2024-02-23T05:00:40;96825.13;;;6.57;76.58
84607;BME280;74838;47.984;7.842;2024-02-23T05:03:06;96834.13;;;6.51;72.81
84607;BME280;74838;47.984;7.842;2024-02-23T05:05:35;96825.13;;;6.52;74.03
84607;BME280;74838;47.984;7.842;2024-02-23T05:08:02;96819.84;;;6.47;73.82
84607;BME280;74838;47.984;7.842;2024-02-23T05:10:29;96837.03;;;6.50;77.61
84607;BME280;74838;47.984;7.842;2024-02-23T05:12:55;96831.22;;;6.48;76.31
84607;BME280;74838;47.984;7.842;2024-02-23T05:15:23;96833.59;;;6.39;73.85
84607;BME280;74838;47.984;7.842;2024-02-23T05:17:50;96835.16;;;6.45;75.68
84607;BME280;74838;47.984;7.842;2024-02-23T05:20:16;96835.69;;;6.37;74.23
84607;BME280;74838;47.984;7.842;2024-02-23T05:22:43;96833.34;;;6.31;76.56
84607;BME280;74838;47.984;7.842;2024-02-23T05:25:09;96843.34;;;6.34;75.96
84607;BME280;74838;47.984;7.842;2024-02-23T05:27:36;96838.34;;;6.32;75.81
84607;BME280;74838;47.984;7.842;2024-02-23T05:30:04;96842.81;;;6.32;75.64
84607;BME280;74838;47.984;7.842;2024-02-23T05:32:33;96841.78;;;6.28;76.34
84607;BME280;74838;47.984;7.842;2024-02-23T05:34:59;96846.53;;;6.31;76.86
84607;BME280;74838;47.984;7.842;2024-02-23T05:37:27;96835.16;;;6.40;76.38
84607;BME280;74838;47.984;7.842;2024-02-23T05:39:53;96844.66;;;6.36;79.14
84607;BME280;74838;47.984;7.842;2024-02-23T05:42:20;96851.00;;;6.30;77.02
84607;BME280;74838;47.984;7.842;2024-02-23T05:44:49;96854.69;;;6.34;78.22
84607;BME280;74838;47.984;7.842;2024-02-23T05:47:16;96864.44;;;6.29;76.06
84607;BME280;74838;47.984;7.842;2024-02-23T05:49:44;96861.53;;;6.30;78.60
84607;BME280;74838;47.984;7.842;2024-02-23T05:52:11;96860.50;;;6.26;76.82
84607;BME280;74838;47.984;7.842;2024-02-23T05:54:40;96865.50;;;6.28;76.93
84607;BME280;74838;47.984;7.842;2024-02-23T05:57:08;96855.72;;;6.28;75.63
84607;BME280;74838;47.984;7.842;2024-02-23T05:59:35;96865.25;;;6.29;75.54
84607;BME280;74838;47.984;7.842;2024-02-23T06:02:02;96864.44;;;6.29;74.61
84607;BME280;74838;47.984;7.842;2024-02-23T06:04:28;96863.91;;;6.32;73.75
84607;BME280;74838;47.984;7.842;2024-02-23T06:06:56;96869.97;;;6.37;75.09
84607;BME280;74838;47.984;7.842;2024-02-23T06:09:23;96860.50;;;6.36;76.57
84607;BME280;74838;47.984;7.842;2024-02-23T06:11:49;96866.28;;;6.38;74.88
84607;BME280;74838;47.984;7.842;2024-02-23T06:14:16;96853.88;;;6.34;74.87
84607;BME280;74838;47.984;7.842;2024-02-23T06:16:43;96845.72;;;6.35;74.69
84607;BME280;74838;47.984;7.842;2024-02-23T06:19:09;96865.78;;;6.41;75.99
84607;BME280;74838;47.984;7.842;2024-02-23T06:21:36;96866.03;;;6.40;74.77
84607;BME280;74838;47.984;7.842;2024-02-23T06:24:04;96864.72;;;6.32;74.94
84607;BME280;74838;47.984;7.842;2024-02-23T06:26:33;96854.69;;;6.29;75.58
84607;BME280;74838;47.984;7.842;2024-02-23T06:28:59;96858.88;;;6.20;75.24
84607;BME280;74838;47.984;7.842;2024-02-23T06:31:26;96852.84;;;6.20;75.77
84607;BME280;74838;47.984;7.842;2024-02-23T06:33:53;96852.03;;;6.19;78.45
84607;BME280;74838;47.984;7.842;2024-02-23T06:36:19;96856.81;;;6.27;75.74
84607;BME280;74838;47.984;7.842;2024-02-23T06:38:48;96854.69;;;6.24;75.84
84607;BME280;74838;47.984;7.842;2024-02-23T06:41:16;96848.38;;;6.16;74.71
84607;BME280;74838;47.984;7.842;2024-02-23T06:43:43;96845.16;;;6.14;74.07
84607;BME280;74838;47.984;7.842;2024-02-23T06:46:10;96843.34;;;6.19;74.87
84607;BME280;74838;47.984;7.842;2024-02-23T06:48:36;96842.53;;;6.18;74.24
84607;BME280;74838;47.984;7.842;2024-02-23T06:51:04;96852.56;;;6.17;74.46
84607;BME280;74838;47.984;7.842;2024-02-23T06:53:30;96858.38;;;6.18;74.26
84607;BME280;74838;47.984;7.842;2024-02-23T06:55:58;96866.25;;;6.14;72.97
84607;BME280;74838;47.984;7.842;2024-02-23T06:58:27;96869.97;;;6.18;75.19
84607;BME280;74838;47.984;7.842;2024-02-23T07:00:54;96869.72;;;6.14;73.81
84607;BME280;74838;47.984;7.842;2024-02-23T07:03:20;96866.25;;;6.14;75.26
84607;BME280;74838;47.984;7.842;2024-02-23T07:05:47;96874.72;;;6.16;74.87
84607;BME280;74838;47.984;7.842;2024-02-23T07:08:15;96876.28;;;6.17;73.73
84607;BME280;74838;47.984;7.842;2024-02-23T07:10:42;96877.09;;;6.22;74.73
84607;BME280;74838;47.984;7.842;2024-02-23T07:13:09;96878.16;;;6.65;72.06
84607;BME280;74838;47.984;7.842;2024-02-23T07:15:39;96885.81;;;6.52;72.83
84607;BME280;74838;47.984;7.842;2024-02-23T07:18:06;96883.16;;;6.42;71.91
84607;BME280;74838;47.984;7.842;2024-02-23T07:20:35;96874.47;;;6.47;72.68
84607;BME280;74838;47.984;7.842;2024-02-23T07:23:01;96886.88;;;6.46;72.39
84607;BME280;74838;47.984;7.842;2024-02-23T07:25:30;96884.75;;;6.48;72.46
84607;BME280;74838;47.984;7.842;2024-02-23T07:27:57;96881.59;;;6.51;72.26
84607;BME280;74838;47.984;7.842;2024-02-23T07:30:23;96885.03;;;6.57;74.67
84607;BME280;74838;47.984;7.842;2024-02-23T07:32:51;96888.72;;;6.60;74.79
84607;BME280;74838;47.984;7.842;2024-02-23T07:35:18;96884.22;;;6.61;72.18
84607;BME280;74838;47.984;7.842;2024-02-23T07:37:45;96898.22;;;6.76;72.89
84607;BME280;74838;47.984;7.842;2024-02-23T07:40:14;96876.53;;;6.94;73.63
84607;BME280;74838;47.984;7.842;2024-02-23T07:42:43;96890.19;;;7.31;74.99
84607;BME280;74838;47.984;7.842;2024-02-23T07:45:10;96892.31;;;7.29;71.09
84607;BME280;74838;47.984;7.842;2024-02-23T07:47:39;96890.41;;;7.44;70.26
84607;BME280;74838;47.984;7.842;2024-02-23T07:50:07;96885.69;;;7.31;71.25
84607;BME280;74838;47.984;7.842;2024-02-23T07:52:34;96887.84;;;7.19;71.52
84607;BME280;74838;47.984;7.842;2024-02-23T07:55:00;96871.00;;;7.01;71.43
84607;BME280;74838;47.984;7.842;2024-02-23T07:57:30;96889.19;;;7.07;70.41
84607;BME280;74838;47.984;7.842;2024-02-23T07:59:57;96889.97;;;7.07;71.38
84607;BME280;74838;47.984;7.842;2024-02-23T08:02:26;96884.44;;;7.04;71.95
84607;BME280;74838;47.984;7.842;2024-02-23T08:04:53;96875.75;;;6.99;71.41
84607;BME280;74838;47.984;7.842;2024-02-23T08:07:20;96847.78;;;6.88;70.44
84607;BME280;74838;47.984;7.842;2024-02-23T08:09:48;96872.00;;;7.09;70.64
84607;BME280;74838;47.984;7.842;2024-02-23T08:12:14;96869.13;;;7.06;70.71
84607;BME280;74838;47.984;7.842;2024-02-23T08:14:41;96840.09;;;6.96;71.60
84607;BME280;74838;47.984;7.842;2024-02-23T08:17:10;96878.38;;;7.13;71.95
84607;BME280;74838;47.984;7.842;2024-02-23T08:19:37;96879.94;;;7.14;69.30
84607;BME280;74838;47.984;7.842;2024-02-23T08:22:03;96871.75;;;7.16;70.49
84607;BME280;74838;47.984;7.842;2024-02-23T08:24:32;96865.13;;;7.18;69.85
84607;BME280;74838;47.984;7.842;2024-02-23T08:26:58;96871.72;;;7.26;70.58
84607;BME280;74838;47.984;7.842;2024-02-23T08:29:25;96845.34;;;7.16;70.21
84607;BME280;74838;47.984;7.842;2024-02-23T08:31:52;96860.88;;;7.32;68.41
84607;BME280;74838;47.984;7.842;2024-02-23T08:34:18;96857.16;;;7.33;68.29
84607;BME280;74838;47.984;7.842;2024-02-23T08:36:45;96861.38;;;7.39;68.23
84607;BME280;74838;47.984;7.842;2024-02-23T08:39:12;96860.25;;;7.50;68.25
84607;BME280;74838;47.984;7.842;2024-02-23T08:41:40;96859.69;;;7.58;67.61
84607;BME280;74838;47.984;7.842;2024-02-23T08:44:06;96853.88;;;7.61;67.26
84607;BME280;74838;47.984;7.842;2024-02-23T08:46:33;96850.66;;;7.69;68.05
84607;BME280;74838;47.984;7.842;2024-02-23T08:49:00;96855.66;;;7.75;68.29
84607;BME280;74838;47.984;7.842;2024-02-23T08:51:27;96855.59;;;7.85;67.79
84607;BME280;74838;47.984;7.842;2024-02-23T08:53:53;96852.94;;;7.90;66.89
84607;BME280;74838;47.984;7.842;2024-02-23T08:56:21;96852.63;;;7.96;66.07
84607;BME280;74838;47.984;7.842;2024-02-23T08:58:49;96843.31;;;8.04;68.01
84607;BME280;74838;47.984;7.842;2024-02-23T09:01:18;96843.28;;;8.09;64.28
84607;BME280;74838;47.984;7.842;2024-02-23T09:03:45;96847.19;;;8.21;64.89
84607;BME280;74838;47.984;7.842;2024-02-23T09:06:11;96837.66;;;8.25;63.94
84607;BME280;74838;47.984;7.842;2024-02-23T09:08:38;96837.84;;;8.33;63.46
84607;BME280;74838;47.984;7.842;2024-02-23T09:11:06;96825.38;;;8.39;62.29
84607;BME280;74838;47.984;7.842;2024-02-23T09:13:33;96835.59;;;8.50;64.72
84607;BME280;74838;47.984;7.842;2024-02-23T09:16:00;96821.47;;;8.60;61.92
84607;BME280;74838;47.984;7.842;2024-02-23T09:18:28;96822.22;;;8.65;62.59
84607;BME280;74838;47.984;7.842;2024-02-23T09:20:57;96820.84;;;8.72;62.72
84607;BME280;74838;47.984;7.842;2024-02-23T09:23:23;96809.06;;;8.83;62.68
84607;BME280;74838;47.984;7.842;2024-02-23T09:25:50;96811.22;;;8.81;61.56
84607;BME280;74838;47.984;7.842;2024-02-23T09:28:16;96810.66;;;8.84;61.43
84607;BME280;74838;47.984;7.842;2024-02-23T09:30:43;96813.75;;;8.91;61.30
84607;BME280;74838;47.984;7.842;2024-02-23T09:33:11;96815.28;;;8.97;62.41
84607;BME280;74838;47.984;7.842;2024-02-23T09:35:38;96811.06;;;8.96;60.73
84607;BME280;74838;47.984;7.842;2024-02-23T09:38:04;96810.56;;;8.94;59.63
84607;BME280;74838;47.984;7.842;2024-02-23T09:40:33;96809.88;;;9.07;59.96
84607;BME280;74838;47.984;7.842;2024-02-23T09:43:00;96809.13;;;9.25;60.47
84607;BME280;74838;47.984;7.842;2024-02-23T09:45:30;96805.44;;;9.26;59.09
84607;BME280;74838;47.984;7.842;2024-02-23T09:47:57;96810.25;;;9.42;60.70
84607;BME280;74838;47.984;7.842;2024-02-23T09:50:25;96810.97;;;9.48;63.30
84607;BME280;74838;47.984;7.842;2024-02-23T09:52:56;96812.28;;;9.50;59.74
84607;BME280;74838;47.984;7.842;2024-02-23T09:55:24;96812.41;;;9.40;58.46
84607;BME280;74838;47.984;7.842;2024-02-23T09:57:52;96789.75;;;9.29;58.39
84607;BME280;74838;47.984;7.842;2024-02-23T10:00:23;96789.44;;;9.31;58.00
84607;BME280;74838;47.984;7.842;2024-02-23T10:02:49;96802.06;;;9.39;58.70
84607;BME280;74838;47.984;7.842;2024-02-23T10:05:17;96807.25;;;9.49;58.72
84607;BME280;74838;47.984;7.842;2024-02-23T10:07:45;96798.75;;;9.51;58.70
84607;BME280;74838;47.984;7.842;2024-02-23T10:10:12;96792.06;;;9.54;58.48
84607;BME280;74838;47.984;7.842;2024-02-23T10:12:39;96800.75;;;9.59;59.03
84607;BME280;74838;47.984;7.842;2024-02-23T10:15:06;96796.31;;;9.73;60.24
84607;BME280;74838;47.984;7.842;2024-02-23T10:17:33;96795.16;;;9.79;58.10
84607;BME280;74838;47.984;7.842;2024-02-23T10:20:00;96782.63;;;9.85;58.84
84607;BME280;74838;47.984;7.842;2024-02-23T10:22:31;96781.75;;;9.89;58.43
84607;BME280;74838;47.984;7.842;2024-02-23T10:25:02;96785.19;;;9.90;57.43
84607;BME280;74838;47.984;7.842;2024-02-23T10:27:28;96781.38;;;10.00;57.88
84607;BME280;74838;47.984;7.842;2024-02-23T10:29:55;96775.38;;;10.08;57.42
84607;BME280;74838;47.984;7.842;2024-02-23T10:32:25;96781.34;;;10.19;56.09
84607;BME280;74838;47.984;7.842;2024-02-23T10:35:00;96763.75;;;10.23;57.34
84607;BME280;74838;47.984;7.842;2024-02-23T10:37:29;96764.09;;;10.34;57.02
84607;BME280;74838;47.984;7.842;2024-02-23T10:39:57;96761.44;;;10.34;56.72
84607;BME280;74838;47.984;7.842;2024-02-23T10:42:33;96756.75;;;10.45;54.71
84607;BME280;74838;47.984;7.842;2024-02-23T10:45:01;96749.69;;;10.67;55.61
84607;BME280;74838;47.984;7.842;2024-02-23T10:47:30;96760.16;;;10.77;55.22
84607;BME280;74838;47.984;7.842;2024-02-23T10:50:00;96763.78;;;10.68;53.92
84607;BME280;74838;47.984;7.842;2024-02-23T10:52:28;96757.28;;;10.74;54.51
84607;BME280;74838;47.984;7.842;2024-02-23T10:54:55;96763.38;;;10.61;53.07
84607;BME280;74838;47.984;7.842;2024-02-23T10:57:22;96761.88;;;10.55;53.03
84607;BME280;74838;47.984;7.842;2024-02-23T10:59:51;96763.28;;;10.66;52.97
84607;BME280;74838;47.984;7.842;2024-02-23T11:02:19;96764.38;;;10.65;53.18
84607;BME280;74838;47.984;7.842;2024-02-23T11:04:50;96750.88;;;10.61;53.39
84607;BME280;74838;47.984;7.842;2024-02-23T11:07:19;96757.00;;;10.75;54.20
84607;BME280;74838;47.984;7.842;2024-02-23T11:09:49;96770.28;;;10.75;53.37
84607;BME280;74838;47.984;7.842;2024-02-23T11:12:22;96763.09;;;10.75;54.05
84607;BME280;74838;47.984;7.842;2024-02-23T11:14:51;96769.31;;;10.71;53.46
84607;BME280;74838;47.984;7.842;2024-02-23T11:17:18;96741.63;;;10.59;54.64
84607;BME280;74838;47.984;7.842;2024-02-23T11:19:46;96762.00;;;10.63;54.97
84607;BME280;74838;47.984;7.842;2024-02-23T11:22:23;96732.19;;;10.53;54.89
84607;BME280;74838;47.984;7.842;2024-02-23T11:24:50;96740.94;;;10.67;54.41
84607;BME280;74838;47.984;7.842;2024-02-23T11:27:17;96760.03;;;10.69;55.19
84607;BME280;74838;47.984;7.842;2024-02-23T11:29:45;96756.59;;;10.68;54.84
84607;BME280;74838;47.984;7.842;2024-02-23T11:32:14;96752.25;;;10.59;55.01
84607;BME280;74838;47.984;7.842;2024-02-23T11:34:54;96745.47;;;10.66;54.43
84607;BME280;74838;47.984;7.842;2024-02-23T11:37:28;96758.59;;;10.76;53.82
84607;BME280;74838;47.984;7.842;2024-02-23T11:39:57;96749.91;;;10.84;54.67
84607;BME280;74838;47.984;7.842;2024-02-23T11:42:24;96721.78;;;10.83;54.96
84607;BME280;74838;47.984;7.842;2024-02-23T11:44:52;96751.31;;;11.21;54.41
84607;BME280;74838;47.984;7.842;2024-02-23T11:47:20;96744.97;;;11.44;54.44
84607;BME280;74838;47.984;7.842;2024-02-23T11:49:47;96718.19;;;11.54;51.71
84607;BME280;74838;47.984;7.842;2024-02-23T11:52:16;96723.06;;;11.74;51.28
84607;BME280;74838;47.984;7.842;2024-02-23T11:54:43;96690.56;;;11.63;51.96
84607;BME280;74838;47.984;7.842;2024-02-23T11:57:09;96713.75;;;11.85;52.28
84607;BME280;74838;47.984;7.842;2024-02-23T11:59:36;96727.53;;;11.87;52.78
84607;BME280;74838;47.984;7.842;2024-02-23T12:02:06;96682.16;;;11.70;50.87
84607;BME280;74838;47.984;7.842;2024-02-23T12:04:34;96729.13;;;11.88;50.86
84607;BME280;74838;47.984;7.842;2024-02-23T12:07:03;96690.09;;;11.83;51.03
84607;BME280;74838;47.984;7.842;2024-02-23T12:09:30;96729.03;;;12.14;50.42
84607;BME280;74838;47.984;7.842;2024-02-23T12:11:57;96716.56;;;12.01;51.33
84607;BME280;74838;47.984;7.842;2024-02-23T12:14:24;96707.59;;;11.98;52.16
84607;BME280;74838;47.984;7.842;2024-02-23T12:16:52;96721.56;;;12.03;51.69
84607;BME280;74838;47.984;7.842;2024-02-23T12:19:19;96710.75;;;12.00;50.32
84607;BME280;74838;47.984;7.842;2024-02-23T12:21:47;96718.00;;;11.86;52.01
84607;BME280;74838;47.984;7.842;2024-02-23T12:24:13;96716.41;;;11.85;52.09
84607;BME280;74838;47.984;7.842;2024-02-23T12:26:40;96689.31;;;11.83;52.67
84607;BME280;74838;47.984;7.842;2024-02-23T12:29:07;96705.66;;;11.90;49.34
84607;BME280;74838;47.984;7.842;2024-02-23T12:31:36;96705.47;;;11.86;49.73
84607;BME280;74838;47.984;7.842;2024-02-23T12:34:02;96706.91;;;11.92;51.28
84607;BME280;74838;47.984;7.842;2024-02-23T12:36:29;96701.59;;;11.92;50.49
84607;BME280;74838;47.984;7.842;2024-02-23T12:39:01;96706.03;;;11.97;51.05
84607;BME280;74838;47.984;7.842;2024-02-23T12:41:28;96703.06;;;11.98;50.02
84607;BME280;74838;47.984;7.842;2024-02-23T12:43:55;96691.88;;;11.88;51.13
84607;BME280;74838;47.984;7.842;2024-02-23T12:46:21;96708.31;;;11.90;51.15
84607;BME280;74838;47.984;7.842;2024-02-23T12:48:49;96689.31;;;11.83;51.79
84607;BME280;74838;47.984;7.842;2024-02-23T12:51:15;96711.94;;;11.94;50.93
84607;BME280;74838;47.984;7.842;2024-02-23T12:53:45;96694.72;;;11.91;51.40
84607;BME280;74838;47.984;7.842;2024-02-23T12:56:13;96704.81;;;12.02;51.01
84607;BME280;74838;47.984;7.842;2024-02-23T12:58:44;96644.06;;;11.61;50.81
84607;BME280;74838;47.984;7.842;2024-02-23T13:01:11;96673.97;;;11.80;49.63
84607;BME280;74838;47.984;7.842;2024-02-23T13:03:40;96704.44;;;11.96;51.29
84607;BME280;74838;47.984;7.842;2024-02-23T13:06:07;96706.97;;;12.00;50.97
84607;BME280;74838;47.984;7.842;2024-02-23T13:08:34;96702.41;;;12.14;51.17